createdAt,value
2023-05-09T01:54:38.785Z,13.00
2023-05-09T02:12:25.107Z,13.20
2023-05-09T02:17:30.928Z,13.30
2023-05-09T02:22:32.778Z,13.30
2023-05-09T02:27:36.771Z,13.30
2023-05-09T02:32:41.783Z,13.40
2023-05-09T02:37:43.901Z,13.30
2023-05-09T02:42:47.413Z,13.30
2023-05-09T02:47:49.681Z,13.40
2023-05-09T02:52:51.819Z,13.40
2023-05-09T02:58:09.142Z,13.40
2023-05-09T03:03:11.876Z,13.40
2023-05-09T03:08:13.900Z,13.50
2023-05-09T03:13:17.853Z,13.40
2023-05-09T03:18:20.126Z,13.50
2023-05-09T03:23:22.297Z,13.50
2023-05-09T03:28:25.415Z,13.50
2023-05-09T03:33:27.299Z,13.50
2023-05-09T03:38:29.698Z,13.40
2023-05-09T03:43:32.825Z,13.40
2023-05-09T03:48:34.630Z,13.40
2023-05-09T03:53:37.055Z,13.30
2023-05-09T03:58:40.740Z,13.40
2023-05-09T04:03:43.565Z,13.40
2023-05-09T04:08:46.146Z,13.50
2023-05-09T04:13:50.826Z,13.40
2023-05-09T04:18:52.779Z,13.40
2023-05-09T04:23:54.612Z,13.40
2023-05-09T04:28:57.775Z,13.40
2023-05-09T04:33:59.727Z,13.50
2023-05-09T04:39:01.885Z,13.40
2023-05-09T04:44:06.437Z,13.40
2023-05-09T04:49:08.513Z,13.50
2023-05-09T04:54:21.333Z,13.60
2023-05-09T04:59:58.463Z,13.60
2023-05-09T05:05:24.305Z,13.70
2023-05-09T05:10:31.774Z,13.70
2023-05-09T05:15:43.485Z,13.70
2023-05-09T05:20:45.287Z,13.80
2023-05-09T05:25:57.149Z,13.70
2023-05-09T05:31:00.471Z,13.90
2023-05-09T05:36:02.541Z,13.80
2023-05-09T05:41:04.325Z,13.90
2023-05-09T05:46:07.892Z,13.90
2023-05-09T05:51:09.905Z,14.00
2023-05-09T05:56:11.777Z,14.10
2023-05-09T06:01:15.303Z,14.30
2023-05-09T06:06:17.264Z,14.50
2023-05-09T06:11:19.576Z,14.70
2023-05-09T06:16:23.089Z,14.90
2023-05-09T06:21:24.909Z,14.80
2023-05-09T06:26:27.157Z,14.80
2023-05-09T06:31:30.376Z,15.10
2023-05-09T06:36:33.661Z,14.90
2023-05-09T06:41:35.883Z,14.80
2023-05-09T06:46:39.189Z,14.80
2023-05-09T06:51:41.262Z,15.10
2023-05-09T06:56:43.129Z,15.40
2023-05-09T07:01:46.776Z,16.00
2023-05-09T07:06:49.293Z,16.10
2023-05-09T07:11:51.272Z,15.80
2023-05-09T07:17:02.201Z,15.50
2023-05-09T07:22:13.623Z,15.90
2023-05-09T07:27:15.646Z,16.30
2023-05-09T07:32:18.898Z,16.90
2023-05-09T07:37:21.046Z,17.00
2023-05-09T07:42:23.434Z,16.60
2023-05-09T07:47:27.654Z,16.70
2023-05-09T07:52:29.905Z,17.30
2023-05-09T07:57:31.926Z,17.40
2023-05-09T08:02:35.401Z,17.30
2023-05-09T08:07:37.235Z,17.30
2023-05-09T08:12:39.224Z,18.20
2023-05-09T08:17:43.078Z,18.70
2023-05-09T08:22:45.210Z,19.20
2023-05-09T08:27:47.158Z,19.70
2023-05-09T08:32:51.120Z,20.00
2023-05-09T08:37:52.840Z,19.80
2023-05-09T08:42:54.908Z,19.90
2023-05-09T08:47:59.370Z,20.00
2023-05-09T08:53:01.537Z,20.30
2023-05-09T08:58:04.282Z,20.90
2023-05-09T09:03:08.806Z,22.20
2023-05-09T09:08:12.082Z,23.40
2023-05-09T09:13:15.456Z,24.00
2023-05-09T09:18:24.706Z,24.10
2023-05-09T09:23:27.560Z,24.30
2023-05-09T09:28:30.196Z,24.50
2023-05-09T09:33:33.476Z,23.90
2023-05-09T09:38:44.054Z,24.60
2023-05-09T09:43:47.871Z,24.00
2023-05-09T09:48:55.346Z,24.90
2023-05-09T09:53:57.548Z,25.10
2023-05-09T09:59:11.464Z,26.10
2023-05-09T10:04:18.747Z,26.40
2023-05-09T10:09:22.289Z,26.50
2023-05-09T10:14:26.451Z,26.50
2023-05-09T10:19:32.017Z,26.30
2023-05-09T10:24:39.914Z,25.20
2023-05-09T10:29:46.035Z,25.10
2023-05-09T10:34:52.970Z,25.90
2023-05-09T10:39:56.374Z,25.90
2023-05-09T10:44:58.859Z,26.90
2023-05-09T10:50:02.628Z,27.00
2023-05-09T10:55:06.890Z,27.70
2023-05-09T11:00:10.140Z,27.80
2023-05-09T11:05:18.745Z,28.40
2023-05-09T11:10:20.632Z,27.10
2023-05-09T11:15:22.845Z,27.20
2023-05-09T11:20:29.868Z,28.50
2023-05-09T11:25:31.993Z,28.40
2023-05-09T11:30:40.701Z,27.70
2023-05-09T11:35:45.545Z,27.90
2023-05-09T11:40:48.432Z,27.40
2023-05-09T11:45:50.499Z,28.40
2023-05-09T11:50:54.104Z,28.40
2023-05-09T11:55:56.200Z,29.10
2023-05-09T12:00:58.739Z,29.70
2023-05-09T12:06:02.385Z,29.30
2023-05-09T12:11:12.362Z,29.30
2023-05-09T12:16:14.598Z,29.50
2023-05-09T12:21:18.576Z,28.40
2023-05-09T12:26:20.816Z,28.70
2023-05-09T12:31:23.707Z,29.30
2023-05-09T12:36:27.630Z,29.10
2023-05-09T12:41:39.039Z,29.00
2023-05-09T12:46:41.432Z,28.60
2023-05-09T12:51:51.714Z,27.80
2023-05-09T12:56:56.887Z,28.10
2023-05-09T13:02:00.508Z,28.40
2023-05-09T13:07:10.506Z,28.80
2023-05-09T13:12:12.620Z,28.20
2023-05-09T13:17:14.544Z,27.00
2023-05-09T13:22:19.158Z,27.60
2023-05-09T13:27:21.394Z,27.80
2023-05-09T13:32:25.046Z,26.60
2023-05-09T13:37:29.126Z,26.70
2023-05-09T13:42:31.522Z,26.60
2023-05-09T13:47:34.199Z,26.20
2023-05-09T13:52:38.567Z,25.50
2023-05-09T13:57:40.621Z,25.90
2023-05-09T14:02:42.641Z,25.90
2023-05-09T14:07:46.413Z,25.40
2023-05-09T14:12:48.683Z,25.90
2023-05-09T14:17:51.045Z,26.30
2023-05-09T14:22:55.255Z,26.20
2023-05-09T14:27:57.173Z,26.40
2023-05-09T14:32:59.359Z,27.20
2023-05-09T14:38:04.486Z,27.30
2023-05-09T14:43:06.344Z,27.80
2023-05-09T14:48:08.047Z,27.80
2023-05-09T14:53:12.824Z,27.30
2023-05-09T14:58:16.287Z,27.10
2023-05-09T15:03:18.600Z,26.10
2023-05-09T15:08:22.244Z,25.90
2023-05-09T15:13:24.379Z,25.40
2023-05-09T15:18:28.783Z,24.80
2023-05-09T15:23:32.188Z,24.40
2023-05-09T15:28:34.025Z,23.90
2023-05-09T15:33:36.300Z,23.20
2023-05-09T15:38:40.060Z,23.10
2023-05-09T15:43:42.453Z,22.90
2023-05-09T15:48:44.517Z,22.70
2023-05-09T15:53:48.892Z,22.50
2023-05-09T15:58:50.915Z,22.20
2023-05-09T16:03:53.169Z,21.90
2023-05-09T16:08:57.310Z,21.60
2023-05-09T16:13:59.295Z,21.30
2023-05-09T16:19:02.861Z,21.00
2023-05-09T16:24:07.313Z,20.90
2023-05-09T16:29:10.135Z,20.80
2023-05-09T16:34:12.363Z,20.80
2023-05-09T16:39:16.279Z,20.70
2023-05-09T16:44:18.647Z,20.40
2023-05-09T16:49:20.794Z,20.00
2023-05-09T16:54:24.419Z,19.60
2023-05-09T16:59:26.793Z,19.20
2023-05-09T17:04:29.502Z,18.60
2023-05-09T17:09:33.352Z,18.30
2023-05-09T17:14:35.372Z,18.10
2023-05-09T17:19:37.310Z,17.90
2023-05-09T17:24:41.227Z,17.70
2023-05-09T17:29:43.861Z,17.30
2023-05-09T17:34:46.857Z,17.00
2023-05-09T17:39:52.340Z,16.90
2023-05-09T17:44:55.683Z,16.80
2023-05-09T17:49:58.489Z,16.70
2023-05-09T17:55:02.942Z,16.60
2023-05-09T18:00:08.659Z,16.40
2023-05-09T18:05:12.483Z,16.20
2023-05-09T18:10:16.985Z,16.00
2023-05-09T18:15:19.778Z,16.00
2023-05-09T18:20:22.725Z,16.00
2023-05-09T18:25:27.335Z,15.90
2023-05-09T18:30:30.265Z,15.80
2023-05-09T18:35:33.126Z,15.70
2023-05-09T18:40:40.881Z,15.70
2023-05-09T18:45:45.762Z,15.60
2023-05-09T18:50:48.205Z,15.60
2023-05-09T18:55:52.462Z,15.60
2023-05-09T19:00:55.783Z,15.50
2023-05-09T19:05:59.912Z,15.20
2023-05-09T19:11:04.161Z,15.20
2023-05-09T19:16:07.837Z,15.20
2023-05-09T19:21:11.085Z,15.10
2023-05-09T19:26:16.357Z,15.00
2023-05-09T19:31:21.157Z,15.00
2023-05-09T19:36:24.790Z,15.00
2023-05-09T19:41:29.093Z,14.80
2023-05-09T19:46:32.311Z,14.80
2023-05-09T19:51:36.117Z,14.90
2023-05-09T19:56:40.380Z,14.70
2023-05-09T20:01:43.106Z,14.60
2023-05-09T20:06:46.910Z,14.60
2023-05-09T20:11:51.453Z,14.60
2023-05-09T20:16:54.009Z,14.70
2023-05-09T20:21:56.969Z,14.60
2023-05-09T20:27:01.101Z,14.60
2023-05-09T20:32:04.361Z,14.60
2023-05-09T20:37:07.167Z,14.60
2023-05-09T20:42:11.462Z,14.50
2023-05-09T20:47:14.239Z,14.50
2023-05-09T20:52:16.917Z,14.50
2023-05-09T20:57:20.346Z,14.60
2023-05-09T21:02:22.334Z,14.40
2023-05-09T21:07:24.693Z,14.40
2023-05-09T21:12:28.037Z,14.40
2023-05-09T21:17:30.897Z,14.50
2023-05-09T21:22:33.027Z,14.40
2023-05-09T21:27:36.479Z,14.30
2023-05-09T21:32:38.444Z,14.40
2023-05-09T21:37:41.012Z,14.40
2023-05-09T21:42:45.134Z,14.40
2023-05-09T21:47:48.245Z,14.30
2023-05-09T21:52:50.946Z,14.30
2023-05-09T21:57:55.053Z,14.30
2023-05-09T22:02:57.076Z,14.20
2023-05-09T22:07:59.073Z,14.30
2023-05-09T22:13:03.927Z,14.30
2023-05-09T22:18:06.858Z,14.20
2023-05-09T22:23:09.687Z,14.10
2023-05-09T22:28:13.444Z,14.10
2023-05-09T22:33:15.798Z,14.20
2023-05-09T22:38:17.842Z,14.10
2023-05-09T22:43:21.506Z,14.10
2023-05-09T22:48:25.318Z,14.10
2023-05-09T22:53:28.345Z,14.10
2023-05-09T22:58:31.542Z,14.00
2023-05-09T23:03:33.708Z,14.10
2023-05-09T23:08:36.201Z,14.00
2023-05-09T23:13:39.467Z,14.00
2023-05-09T23:18:41.555Z,13.90
2023-05-09T23:23:43.441Z,13.90
2023-05-09T23:28:47.110Z,13.90
2023-05-09T23:33:50.662Z,13.80
2023-05-09T23:38:52.473Z,13.80
2023-05-09T23:43:58.091Z,13.80
2023-05-09T23:48:59.842Z,13.80
2023-05-09T23:54:01.982Z,13.80
2023-05-09T23:59:05.433Z,13.80
